Time;durP1;ratioP1;P1;durP2;ratioP2;P2;SDS_P1;SDS_P2;PMS_P1;PMS_P2;Temp;Humidity;BMP_temperature;BMP_pressure;BME280_temperature;BME280_humidity;BME280_pressure;Samples;Min_cycle;Max_cycle;Signal;HPM_P1;HPM_P2
2024/04/06 00:01:07;;;;;;;;;;;16.40;99.90;;;;;;5000710;28;20397;-73
2024/04/06 00:03:33;;;;;;;;;;;16.40;99.90;;;;;;4990309;28;19918;-74
2024/04/06 00:05:58;;;;;;;;;;;16.30;99.90;;;;;;4997051;28;19910;-73
2024/04/06 00:08:24;;;;;;;;;;;16.30;99.90;;;;;;4989487;28;19910;-73
2024/04/06 00:10:49;;;;;;;;;;;16.10;99.90;;;;;;4989725;28;20274;-73
2024/04/06 00:13:15;;;;;;;;;;;15.90;99.90;;;;;;4989310;28;20004;-72
2024/04/06 00:15:40;;;;;;;;;;;15.90;99.90;;;;;;4988971;28;19963;-72
2024/04/06 00:18:05;;;;;;;;;;;16.00;99.90;;;;;;4988843;28;19910;-72
2024/04/06 00:20:34;;;;;;;;;;;16.10;99.90;;;;;;4988292;28;19967;-72
2024/04/06 00:23:00;;;;;;;;;;;16.00;99.90;;;;;;4988799;28;19956;-72
2024/04/06 00:25:25;;;;;;;;;;;15.90;99.90;;;;;;4988196;28;19910;-73
2024/04/06 00:27:51;;;;;;;;;;;15.90;99.90;;;;;;4989180;28;19917;-73
2024/04/06 00:30:16;;;;;;;;;;;15.80;99.90;;;;;;4989363;28;20392;-72
2024/04/06 00:32:42;;;;;;;;;;;15.70;99.90;;;;;;4990088;28;19948;-72
2024/04/06 00:35:07;;;;;;;;;;;15.60;99.90;;;;;;4988379;28;19910;-73
2024/04/06 00:37:33;;;;;;;;;;;15.50;99.90;;;;;;4989726;28;20357;-73
2024/04/06 00:40:00;;;;;;;;;;;15.40;99.90;;;;;;4987808;28;20015;-72
2024/04/06 00:42:25;;;;;;;;;;;15.40;99.90;;;;;;4987372;28;19932;-72
2024/04/06 00:44:51;;;;;;;;;;;15.50;99.90;;;;;;4989660;28;20292;-73
2024/04/06 00:47:16;;;;;;;;;;;15.60;99.90;;;;;;4988632;28;19971;-72
2024/04/06 00:49:42;;;;;;;;;;;15.70;99.90;;;;;;4989085;28;19910;-71
2024/04/06 00:52:07;;;;;;;;;;;15.50;99.90;;;;;;4993386;28;20376;-73
2024/04/06 00:54:33;;;;;;;;;;;15.30;99.90;;;;;;4992538;28;19910;-72
2024/04/06 00:56:59;;;;;;;;;;;15.20;99.90;;;;;;4993242;28;19909;-72
2024/04/06 00:59:24;;;;;;;;;;;15.10;99.90;;;;;;4991818;28;19913;-72
2024/04/06 01:01:51;;;;;;;;;;;15.10;99.90;;;;;;4993292;28;20368;-72
2024/04/06 01:04:16;;;;;;;;;;;15.00;99.90;;;;;;4992652;28;19924;-72
2024/04/06 01:06:42;;;;;;;;;;;14.90;99.90;;;;;;4991498;28;19910;-72
2024/04/06 01:09:08;;;;;;;;;;;15.00;99.90;;;;;;5011751;28;19917;-72
2024/04/06 01:11:35;;;;;;;;;;;15.00;99.90;;;;;;5010842;28;19971;-73
2024/04/06 01:14:02;;;;;;;;;;;14.90;99.90;;;;;;5010024;28;19913;-72
2024/04/06 01:16:27;;;;;;;;;;;14.70;99.90;;;;;;5005503;28;19910;-72
2024/04/06 01:18:53;;;;;;;;;;;14.60;99.90;;;;;;5009908;28;19917;-72
2024/04/06 01:21:19;;;;;;;;;;;14.50;99.90;;;;;;5009844;28;19933;-71
2024/04/06 01:23:45;;;;;;;;;;;14.30;99.90;;;;;;5005332;28;19921;-72
2024/04/06 01:26:10;;;;;;;;;;;14.20;99.90;;;;;;5011526;28;19983;-71
2024/04/06 01:28:36;;;;;;;;;;;14.20;99.90;;;;;;5011213;28;19934;-72
2024/04/06 01:31:01;;;;;;;;;;;14.20;99.90;;;;;;5011719;28;19944;-72
2024/04/06 01:33:27;;;;;;;;;;;14.10;99.90;;;;;;5014728;28;19920;-72
2024/04/06 01:35:52;;;;;;;;;;;14.00;99.90;;;;;;4995979;28;19910;-72
2024/04/06 01:38:18;;;;;;;;;;;14.10;99.90;;;;;;5026456;28;19917;-72
2024/04/06 01:40:43;;;;;;;;;;;14.10;99.90;;;;;;4991166;28;20430;-71
2024/04/06 01:43:09;;;;;;;;;;;14.20;99.90;;;;;;4990966;28;19929;-71
2024/04/06 01:45:34;;;;;;;;;;;14.10;99.90;;;;;;4990743;28;20450;-72
2024/04/06 01:48:00;;;;;;;;;;;13.90;99.90;;;;;;4998507;28;20300;-72
2024/04/06 01:50:25;;;;;;;;;;;13.70;99.90;;;;;;4990866;28;19949;-72
2024/04/06 01:52:50;;;;;;;;;;;13.70;99.90;;;;;;4990494;28;20380;-71
2024/04/06 01:55:16;;;;;;;;;;;13.80;99.90;;;;;;4991840;28;19910;-73
2024/04/06 01:57:41;;;;;;;;;;;13.70;99.90;;;;;;4992069;28;19945;-72
2024/04/06 02:00:08;;;;;;;;;;;13.70;99.90;;;;;;5003916;28;19916;-72
2024/04/06 02:02:34;;;;;;;;;;;13.80;99.90;;;;;;4990212;28;20016;-73
2024/04/06 02:04:59;;;;;;;;;;;13.80;99.90;;;;;;5002860;28;19992;-73
2024/04/06 02:07:25;;;;;;;;;;;13.70;99.90;;;;;;5010228;28;19953;-72
2024/04/06 02:09:50;;;;;;;;;;;13.80;99.90;;;;;;5001040;28;19926;-73
2024/04/06 02:12:16;;;;;;;;;;;14.00;99.90;;;;;;5008618;28;19931;-72
2024/04/06 02:14:42;;;;;;;;;;;14.20;99.90;;;;;;5009204;28;19916;-73
2024/04/06 02:17:07;;;;;;;;;;;14.20;99.90;;;;;;5010739;28;19909;-72
2024/04/06 02:19:33;;;;;;;;;;;14.10;99.90;;;;;;5012108;28;19917;-71
2024/04/06 02:21:58;;;;;;;;;;;14.10;99.90;;;;;;5012259;28;19916;-72
2024/04/06 02:24:24;;;;;;;;;;;14.30;99.90;;;;;;5013238;28;20452;-72
2024/04/06 02:26:50;;;;;;;;;;;14.40;99.90;;;;;;5009762;28;19913;-72
2024/04/06 02:29:15;;;;;;;;;;;14.60;99.90;;;;;;5010430;28;19909;-72
2024/04/06 02:31:41;;;;;;;;;;;14.50;99.90;;;;;;5009165;28;20035;-72
2024/04/06 02:34:08;;;;;;;;;;;14.50;99.90;;;;;;5010483;28;19962;-72
2024/04/06 02:36:35;;;;;;;;;;;14.40;99.90;;;;;;5002912;28;20430;-73
2024/04/06 02:39:01;;;;;;;;;;;14.40;99.90;;;;;;5002060;28;20318;-72
2024/04/06 02:41:27;;;;;;;;;;;14.30;99.90;;;;;;4996174;28;19913;-73
2024/04/06 02:43:52;;;;;;;;;;;14.30;99.90;;;;;;5006605;28;20429;-72
2024/04/06 02:46:17;;;;;;;;;;;14.20;99.90;;;;;;5008195;28;20379;-72
2024/04/06 02:48:43;;;;;;;;;;;14.00;99.90;;;;;;5009216;28;19910;-72
2024/04/06 02:51:09;;;;;;;;;;;13.80;99.90;;;;;;5007510;28;19910;-72
2024/04/06 02:53:34;;;;;;;;;;;13.80;99.90;;;;;;5008377;28;20341;-72
2024/04/06 02:56:00;;;;;;;;;;;13.70;99.90;;;;;;5007257;28;19959;-72
2024/04/06 02:58:26;;;;;;;;;;;13.60;99.90;;;;;;5002744;28;19992;-72
2024/04/06 03:00:51;;;;;;;;;;;13.40;99.90;;;;;;5002488;28;20471;-72
2024/04/06 03:03:17;;;;;;;;;;;13.40;99.90;;;;;;4991033;28;19964;-73
2024/04/06 03:05:42;;;;;;;;;;;13.30;99.90;;;;;;4990627;28;20327;-72
2024/04/06 03:08:08;;;;;;;;;;;13.50;99.90;;;;;;4990707;28;20339;-72
2024/04/06 03:10:33;;;;;;;;;;;13.70;99.90;;;;;;4995520;28;19920;-72
2024/04/06 03:12:59;;;;;;;;;;;13.70;99.90;;;;;;5009264;28;19993;-72
2024/04/06 03:15:25;;;;;;;;;;;13.60;99.90;;;;;;5003695;28;20280;-73
2024/04/06 03:17:50;;;;;;;;;;;13.50;99.90;;;;;;5009684;28;19910;-72
2024/04/06 03:20:16;;;;;;;;;;;13.40;99.90;;;;;;5007632;28;19916;-72
2024/04/06 03:22:44;;;;;;;;;;;13.40;99.90;;;;;;5007973;28;19925;-72
2024/04/06 03:25:10;;;;;;;;;;;13.40;99.90;;;;;;5007612;28;20000;-72
2024/04/06 03:27:35;;;;;;;;;;;13.40;99.90;;;;;;5008371;28;20385;-72
2024/04/06 03:30:01;;;;;;;;;;;13.40;99.90;;;;;;5006547;28;19909;-72
2024/04/06 03:32:26;;;;;;;;;;;13.40;99.90;;;;;;5002925;28;20373;-72
2024/04/06 03:34:52;;;;;;;;;;;13.30;99.90;;;;;;5006772;28;19910;-72
2024/04/06 03:37:17;;;;;;;;;;;13.30;99.90;;;;;;5008919;28;20291;-72
2024/04/06 03:39:43;;;;;;;;;;;13.30;99.90;;;;;;4994551;28;20336;-72
2024/04/06 03:42:08;;;;;;;;;;;13.50;99.90;;;;;;5009233;28;19909;-72
2024/04/06 03:44:34;;;;;;;;;;;13.60;99.90;;;;;;5006427;28;19943;-72
2024/04/06 03:46:59;;;;;;;;;;;13.60;99.90;;;;;;5007843;28;19909;-72
2024/04/06 03:49:25;;;;;;;;;;;13.50;99.90;;;;;;5009551;28;19918;-71
2024/04/06 03:51:50;;;;;;;;;;;13.60;99.90;;;;;;5014025;28;19924;-72
2024/04/06 03:54:16;;;;;;;;;;;13.60;99.90;;;;;;5006327;28;19910;-72
2024/04/06 03:56:41;;;;;;;;;;;13.80;99.90;;;;;;5006737;28;19910;-72
2024/04/06 03:59:07;;;;;;;;;;;14.10;99.90;;;;;;5004776;28;20272;-72
2024/04/06 04:01:32;;;;;;;;;;;14.30;99.90;;;;;;4995933;28;19956;-71
2024/04/06 04:03:58;;;;;;;;;;;14.40;99.90;;;;;;5006973;28;20269;-72
2024/04/06 04:06:23;;;;;;;;;;;14.30;99.90;;;;;;5019688;28;19921;-72
2024/04/06 04:08:49;;;;;;;;;;;14.20;99.90;;;;;;4989771;28;20071;-72
2024/04/06 04:11:14;;;;;;;;;;;14.20;99.90;;;;;;4989680;28;20313;-71
2024/04/06 04:13:40;;;;;;;;;;;14.20;99.90;;;;;;4988671;28;19910;-72
2024/04/06 04:16:05;;;;;;;;;;;14.10;99.90;;;;;;4998977;28;19913;-72
2024/04/06 04:18:31;;;;;;;;;;;14.20;99.90;;;;;;4991817;28;20327;-72
2024/04/06 04:20:56;;;;;;;;;;;14.10;99.90;;;;;;4989736;28;20395;-72
2024/04/06 04:23:22;;;;;;;;;;;14.20;99.90;;;;;;4989705;28;19925;-72
2024/04/06 04:25:47;;;;;;;;;;;14.30;99.90;;;;;;4992536;28;19910;-72
2024/04/06 04:28:13;;;;;;;;;;;14.40;99.90;;;;;;4994043;28;19910;-72
2024/04/06 04:30:38;;;;;;;;;;;14.40;99.90;;;;;;4992118;28;19920;-73
2024/04/06 04:33:04;;;;;;;;;;;14.50;99.90;;;;;;4994060;28;19921;-72
2024/04/06 04:35:29;;;;;;;;;;;14.50;99.90;;;;;;4992160;28;19910;-72
2024/04/06 04:37:55;;;;;;;;;;;14.60;99.90;;;;;;4993345;28;19913;-72
2024/04/06 04:40:20;;;;;;;;;;;14.70;99.90;;;;;;4992438;28;19918;-72
2024/04/06 04:42:46;;;;;;;;;;;14.70;99.90;;;;;;4994287;28;19918;-72
2024/04/06 04:45:15;;;;;;;;;;;14.80;99.90;;;;;;4992547;28;19918;-72
2024/04/06 04:47:41;;;;;;;;;;;14.80;99.90;;;;;;4993904;28;19910;-73
2024/04/06 04:50:08;;;;;;;;;;;14.90;99.90;;;;;;4992193;28;19910;-72
2024/04/06 04:52:34;;;;;;;;;;;15.00;99.90;;;;;;4992709;28;19921;-73
2024/04/06 04:54:59;;;;;;;;;;;15.00;99.90;;;;;;4992376;28;19910;-73
2024/04/06 04:57:25;;;;;;;;;;;15.10;99.90;;;;;;4983353;28;19951;-71
2024/04/06 04:59:50;;;;;;;;;;;15.10;99.90;;;;;;4992121;28;19910;-72
2024/04/06 05:02:16;;;;;;;;;;;15.10;99.90;;;;;;4991273;28;19946;-72
2024/04/06 05:04:42;;;;;;;;;;;15.20;99.90;;;;;;4992583;28;19918;-72
2024/04/06 05:07:08;;;;;;;;;;;15.40;99.90;;;;;;4993001;28;19910;-72
2024/04/06 05:09:33;;;;;;;;;;;15.40;99.90;;;;;;4992540;28;19910;-72
2024/04/06 05:11:59;;;;;;;;;;;15.60;99.90;;;;;;4992219;28;20292;-72
2024/04/06 05:14:29;;;;;;;;;;;15.60;99.90;;;;;;4991833;28;20203;-72
2024/04/06 05:16:55;;;;;;;;;;;15.60;99.90;;;;;;4992491;28;19956;-73
2024/04/06 05:19:20;;;;;;;;;;;15.60;99.90;;;;;;4991385;28;19937;-72
2024/04/06 05:21:46;;;;;;;;;;;15.70;99.90;;;;;;4992900;28;19935;-72
2024/04/06 05:24:12;;;;;;;;;;;15.80;99.90;;;;;;4992922;28;20395;-72
2024/04/06 05:26:40;;;;;;;;;;;15.90;99.90;;;;;;4992968;28;19917;-72
2024/04/06 05:29:06;;;;;;;;;;;15.90;99.90;;;;;;4990735;28;19914;-72
2024/04/06 05:31:31;;;;;;;;;;;15.90;99.90;;;;;;4992331;28;19909;-72
2024/04/06 05:33:57;;;;;;;;;;;16.00;99.90;;;;;;4991819;28;19913;-72
2024/04/06 05:36:22;;;;;;;;;;;16.20;99.90;;;;;;4992471;28;20371;-72
2024/04/06 05:38:49;;;;;;;;;;;16.30;99.90;;;;;;4990742;28;19952;-72
2024/04/06 05:41:14;;;;;;;;;;;16.40;99.90;;;;;;4992579;28;19917;-72
2024/04/06 05:43:40;;;;;;;;;;;16.40;99.90;;;;;;4991731;28;19918;-72
2024/04/06 05:46:05;;;;;;;;;;;16.50;99.90;;;;;;4990182;28;19914;-71
2024/04/06 05:48:31;;;;;;;;;;;16.50;99.90;;;;;;4991874;28;20052;-72
2024/04/06 05:50:57;;;;;;;;;;;16.50;99.90;;;;;;4992172;28;19917;-72
2024/04/06 05:53:23;;;;;;;;;;;16.50;99.90;;;;;;4991978;28;19917;-73
2024/04/06 05:55:48;;;;;;;;;;;16.50;99.90;;;;;;4990563;28;19993;-72
2024/04/06 05:58:14;;;;;;;;;;;16.60;99.90;;;;;;4990874;28;19916;-72
2024/04/06 06:00:39;;;;;;;;;;;16.80;99.90;;;;;;4991393;28;19910;-72
2024/04/06 06:03:05;;;;;;;;;;;16.90;99.90;;;;;;4991306;28;19926;-72
2024/04/06 06:05:31;;;;;;;;;;;16.90;99.90;;;;;;4992458;28;19917;-72
2024/04/06 06:07:56;;;;;;;;;;;17.10;99.90;;;;;;4991253;28;19910;-72
2024/04/06 06:10:22;;;;;;;;;;;17.30;99.90;;;;;;4991296;28;20000;-73
2024/04/06 06:12:47;;;;;;;;;;;17.60;99.90;;;;;;5000618;28;20017;-72
2024/04/06 06:15:13;;;;;;;;;;;18.00;99.90;;;;;;4993105;28;19910;-72
2024/04/06 06:17:40;;;;;;;;;;;18.40;99.90;;;;;;4992482;28;20426;-72
2024/04/06 06:20:05;;;;;;;;;;;18.90;99.90;;;;;;4989341;28;19918;-73
2024/04/06 06:22:31;;;;;;;;;;;19.20;99.90;;;;;;5032857;28;19933;-72
2024/04/06 06:24:56;;;;;;;;;;;19.40;99.90;;;;;;5006664;28;19909;-72
2024/04/06 06:27:22;;;;;;;;;;;19.40;99.90;;;;;;5009625;28;19914;-72
2024/04/06 06:29:48;;;;;;;;;;;19.50;99.90;;;;;;5004412;28;19956;-72
2024/04/06 06:32:13;;;;;;;;;;;19.70;99.90;;;;;;4993529;28;19914;-72
2024/04/06 06:34:38;;;;;;;;;;;20.20;99.90;;;;;;4993793;28;19914;-72
2024/04/06 06:37:04;;;;;;;;;;;20.60;99.90;;;;;;4991347;28;19917;-71
2024/04/06 06:39:30;;;;;;;;;;;20.70;99.90;;;;;;4991500;28;20387;-72
2024/04/06 06:41:55;;;;;;;;;;;20.70;99.90;;;;;;4990876;28;19917;-72
2024/04/06 06:44:21;;;;;;;;;;;20.60;99.90;;;;;;4992632;28;20269;-72
2024/04/06 06:46:47;;;;;;;;;;;20.50;99.90;;;;;;4990195;28;19916;-73
2024/04/06 06:49:12;;;;;;;;;;;20.60;99.90;;;;;;4992907;28;19909;-72
2024/04/06 06:51:38;;;;;;;;;;;20.70;99.90;;;;;;4991971;28;19914;-73
2024/04/06 06:54:06;;;;;;;;;;;20.70;99.90;;;;;;4994942;28;20000;-70
2024/04/06 06:56:31;;;;;;;;;;;20.70;99.90;;;;;;4991287;28;19910;-70
2024/04/06 06:58:57;;;;;;;;;;;20.80;99.90;;;;;;4991947;28;19910;-71
2024/04/06 07:01:23;;;;;;;;;;;20.70;99.90;;;;;;4992869;28;19913;-72
2024/04/06 07:03:49;;;;;;;;;;;21.00;99.90;;;;;;5005195;28;19921;-72
2024/04/06 07:06:15;;;;;;;;;;;21.20;99.90;;;;;;5008735;28;19914;-72
2024/04/06 07:08:41;;;;;;;;;;;21.10;99.90;;;;;;5004037;28;19910;-72
2024/04/06 07:11:07;;;;;;;;;;;21.10;99.90;;;;;;5009708;28;20329;-72
2024/04/06 07:13:32;;;;;;;;;;;21.00;99.90;;;;;;5009086;28;19921;-72
2024/04/06 07:16:05;;;;;;;;;;;21.00;99.90;;;;;;5008361;28;19910;-72
2024/04/06 07:18:31;;;;;;;;;;;21.10;99.90;;;;;;5008289;28;19910;-72
2024/04/06 07:20:56;;;;;;;;;;;21.00;99.90;;;;;;5009874;28;19909;-72
2024/04/06 07:23:22;;;;;;;;;;;21.10;99.90;;;;;;5008919;28;19921;-72
2024/04/06 07:25:47;;;;;;;;;;;21.10;99.90;;;;;;5003043;28;19913;-73
2024/04/06 07:28:13;;;;;;;;;;;20.90;99.90;;;;;;5008107;28;19944;-73
2024/04/06 07:30:38;;;;;;;;;;;20.80;99.90;;;;;;5007674;28;20333;-70
2024/04/06 07:33:04;;;;;;;;;;;20.90;99.90;;;;;;5007026;28;19913;-70
2024/04/06 07:35:29;;;;;;;;;;;21.10;99.90;;;;;;5008294;28;19979;-70
2024/04/06 07:37:55;;;;;;;;;;;21.40;99.90;;;;;;5007393;28;21420;-70
2024/04/06 07:40:20;;;;;;;;;;;21.80;99.90;;;;;;5002813;28;19910;-70
2024/04/06 07:42:46;;;;;;;;;;;22.10;99.90;;;;;;5003145;28;19975;-69
2024/04/06 07:45:11;;;;;;;;;;;22.00;99.90;;;;;;5008642;28;19914;-69
2024/04/06 07:47:37;;;;;;;;;;;21.90;99.90;;;;;;5007795;28;19906;-69
2024/04/06 07:50:03;;;;;;;;;;;21.90;99.90;;;;;;5007415;28;19913;-70
2024/04/06 07:52:29;;;;;;;;;;;21.90;99.90;;;;;;5006350;28;19932;-70
2024/04/06 07:54:55;;;;;;;;;;;22.20;99.90;;;;;;5008637;28;20000;-70
2024/04/06 07:57:20;;;;;;;;;;;22.60;99.90;;;;;;4999858;28;20444;-70
2024/04/06 07:59:46;;;;;;;;;;;23.00;99.90;;;;;;5007878;28;19913;-70
2024/04/06 08:02:11;;;;;;;;;;;23.20;99.90;;;;;;4993104;28;19910;-70
2024/04/06 08:04:37;;;;;;;;;;;23.30;99.80;;;;;;4989083;28;20027;-70
2024/04/06 08:07:05;;;;;;;;;;;23.50;99.30;;;;;;4990057;28;19910;-70
2024/04/06 08:09:30;;;;;;;;;;;23.50;98.80;;;;;;4988087;28;19983;-70
2024/04/06 08:11:56;;;;;;;;;;;23.70;98.40;;;;;;4989705;28;20365;-72
2024/04/06 08:14:21;;;;;;;;;;;24.50;97.90;;;;;;4989626;28;19914;-70
2024/04/06 08:16:47;;;;;;;;;;;25.40;96.10;;;;;;4989049;28;20279;-70
2024/04/06 08:19:12;;;;;;;;;;;25.90;95.10;;;;;;4990100;28;19911;-71
2024/04/06 08:21:38;;;;;;;;;;;25.90;94.10;;;;;;4991634;28;20296;-71
2024/04/06 08:24:03;;;;;;;;;;;26.00;93.80;;;;;;4989919;28;20005;-71
2024/04/06 08:26:29;;;;;;;;;;;25.80;93.40;;;;;;4990174;28;19955;-69
2024/04/06 08:28:54;;;;;;;;;;;25.60;93.60;;;;;;4989501;28;20016;-70
2024/04/06 08:31:20;;;;;;;;;;;25.70;93.60;;;;;;4988095;28;19921;-71
2024/04/06 08:33:45;;;;;;;;;;;25.50;93.40;;;;;;4990056;28;19925;-71
2024/04/06 08:36:11;;;;;;;;;;;25.00;93.60;;;;;;4990090;28;19910;-71
2024/04/06 08:38:36;;;;;;;;;;;24.40;94.20;;;;;;4990090;28;19909;-71
2024/04/06 08:41:07;;;;;;;;;;;23.90;95.00;;;;;;4990361;28;19914;-71
2024/04/06 08:43:35;;;;;;;;;;;23.70;95.30;;;;;;4988898;28;19922;-70
2024/04/06 08:46:00;;;;;;;;;;;23.50;95.60;;;;;;4989786;28;19910;-71
2024/04/06 08:48:28;;;;;;;;;;;23.30;95.50;;;;;;4989382;28;19955;-71
2024/04/06 08:50:54;;;;;;;;;;;23.20;95.50;;;;;;4999575;28;19929;-70
2024/04/06 08:53:19;;;;;;;;;;;23.60;95.60;;;;;;5004866;28;19914;-70
2024/04/06 08:55:45;;;;;;;;;;;24.20;95.10;;;;;;5003160;28;19910;-71
2024/04/06 08:58:11;;;;;;;;;;;25.10;93.80;;;;;;5005210;28;19913;-71
2024/04/06 09:00:37;;;;;;;;;;;25.00;94.60;;;;;;5001047;28;19997;-70
2024/04/06 09:03:03;;;;;;;;;;;25.30;92.80;;;;;;4989406;28;19925;-70
2024/04/06 09:05:29;;;;;;;;;;;25.50;92.60;;;;;;4988310;28;20459;-71
2024/04/06 09:07:54;;;;;;;;;;;25.70;92.30;;;;;;4988950;28;20261;-71
2024/04/06 09:10:24;;;;;;;;;;;25.60;92.20;;;;;;5002076;28;20368;-70
2024/04/06 09:12:49;;;;;;;;;;;25.00;92.40;;;;;;4992559;28;20008;-70
2024/04/06 09:15:17;;;;;;;;;;;24.30;93.30;;;;;;4992848;28;20134;-70
2024/04/06 09:17:43;;;;;;;;;;;23.90;93.80;;;;;;4991792;28;19910;-71
2024/04/06 09:20:08;;;;;;;;;;;23.50;93.60;;;;;;4990415;28;20300;-71
2024/04/06 09:22:34;;;;;;;;;;;23.10;94.30;;;;;;4983938;28;19916;-71
2024/04/06 09:25:04;;;;;;;;;;;22.70;94.80;;;;;;4997757;28;19914;-73
2024/04/06 09:27:30;;;;;;;;;;;22.60;94.90;;;;;;4990676;28;19920;-73
2024/04/06 09:29:56;;;;;;;;;;;22.60;95.00;;;;;;4994018;28;19967;-73
2024/04/06 09:32:22;;;;;;;;;;;22.60;95.70;;;;;;4992751;28;19915;-73
2024/04/06 09:34:49;;;;;;;;;;;22.60;95.60;;;;;;4992918;28;19914;-74
2024/04/06 09:37:16;;;;;;;;;;;22.70;95.50;;;;;;4994165;28;20000;-73
2024/04/06 09:39:42;;;;;;;;;;;22.60;95.50;;;;;;4999136;28;19914;-74
2024/04/06 09:42:09;;;;;;;;;;;22.70;95.90;;;;;;5007712;28;19916;-75
2024/04/06 09:44:35;;;;;;;;;;;22.80;95.10;;;;;;4993274;28;19918;-75
2024/04/06 09:47:01;;;;;;;;;;;22.80;94.90;;;;;;5003442;28;19932;-76
2024/04/06 09:49:29;;;;;;;;;;;22.80;94.50;;;;;;4994118;28;19928;-72
2024/04/06 09:51:54;;;;;;;;;;;22.70;95.20;;;;;;4995533;28;20338;-72
2024/04/06 09:54:21;;;;;;;;;;;22.70;94.80;;;;;;4994757;28;19914;-71
2024/04/06 09:56:49;;;;;;;;;;;22.60;94.70;;;;;;4985112;28;19937;-73
2024/04/06 09:59:21;;;;;;;;;;;22.60;94.80;;;;;;4993332;28;20332;-73
2024/04/06 10:01:47;;;;;;;;;;;22.70;95.00;;;;;;4992219;28;19996;-73
2024/04/06 10:04:23;;;;;;;;;;;22.90;95.20;;;;;;4990895;28;20005;-74
2024/04/06 10:06:49;;;;;;;;;;;23.00;95.10;;;;;;5006230;28;19990;-73
2024/04/06 10:09:15;;;;;;;;;;;23.10;94.80;;;;;;5010925;28;19929;-73
2024/04/06 10:11:40;;;;;;;;;;;23.10;94.60;;;;;;5009386;28;20402;-73
2024/04/06 10:14:06;;;;;;;;;;;23.10;94.40;;;;;;5011374;28;19921;-73
2024/04/06 10:16:32;;;;;;;;;;;23.20;94.80;;;;;;5011075;28;19909;-73
2024/04/06 10:19:01;;;;;;;;;;;23.30;94.00;;;;;;5009565;28;19909;-74
2024/04/06 10:21:29;;;;;;;;;;;23.40;94.10;;;;;;5007933;28;19936;-73
2024/04/06 10:23:55;;;;;;;;;;;23.40;93.90;;;;;;5010778;28;19929;-73
2024/04/06 10:26:21;;;;;;;;;;;23.40;94.50;;;;;;5010387;28;19983;-73
2024/04/06 10:28:47;;;;;;;;;;;23.50;94.00;;;;;;5009362;28;20381;-72
2024/04/06 10:31:12;;;;;;;;;;;23.60;94.10;;;;;;5001673;28;19925;-73
2024/04/06 10:33:38;;;;;;;;;;;23.60;94.00;;;;;;5001943;28;19922;-73
2024/04/06 10:36:10;;;;;;;;;;;23.70;94.10;;;;;;4996670;28;19913;-74
2024/04/06 10:38:36;;;;;;;;;;;23.70;93.20;;;;;;4990804;28;19943;-73
2024/04/06 10:41:03;;;;;;;;;;;23.70;93.50;;;;;;4998229;28;19956;-74
2024/04/06 10:43:30;;;;;;;;;;;23.60;93.30;;;;;;4987932;28;19922;-75
2024/04/06 10:45:55;;;;;;;;;;;23.50;93.50;;;;;;4996859;28;19910;-73
2024/04/06 10:48:21;;;;;;;;;;;23.40;93.90;;;;;;4998660;28;20046;-73
2024/04/06 10:50:46;;;;;;;;;;;23.40;93.60;;;;;;5005342;28;19910;-74
2024/04/06 10:53:12;;;;;;;;;;;23.40;93.70;;;;;;5007114;28;19936;-74
2024/04/06 10:55:37;;;;;;;;;;;23.60;94.30;;;;;;5001798;28;19972;-73
2024/04/06 10:58:04;;;;;;;;;;;23.70;93.90;;;;;;5008837;28;19916;-73
2024/04/06 11:00:31;;;;;;;;;;;23.70;93.40;;;;;;5004567;28;19914;-73
2024/04/06 11:03:02;;;;;;;;;;;23.70;93.50;;;;;;4989887;28;19944;-74
2024/04/06 11:05:28;;;;;;;;;;;23.70;94.00;;;;;;4988968;28;19921;-73
2024/04/06 11:07:54;;;;;;;;;;;23.80;94.00;;;;;;5001337;28;19937;-74
2024/04/06 11:10:19;;;;;;;;;;;23.70;93.50;;;;;;5002774;28;19909;-74
2024/04/06 11:12:45;;;;;;;;;;;23.70;94.10;;;;;;5011294;28;19986;-73
2024/04/06 11:15:11;;;;;;;;;;;23.90;93.70;;;;;;4994476;28;19918;-74
2024/04/06 11:17:37;;;;;;;;;;;24.00;93.70;;;;;;4992843;28;20327;-74
2024/04/06 11:20:06;;;;;;;;;;;24.10;93.90;;;;;;5005248;28;19916;-74
2024/04/06 11:22:32;;;;;;;;;;;24.10;93.30;;;;;;5006344;28;20414;-74
2024/04/06 11:24:57;;;;;;;;;;;24.20;93.00;;;;;;4992815;28;20008;-73
2024/04/06 11:27:24;;;;;;;;;;;24.10;93.30;;;;;;5008393;28;19967;-74
2024/04/06 11:29:49;;;;;;;;;;;24.00;93.60;;;;;;4995644;28;20265;-73
2024/04/06 11:32:21;;;;;;;;;;;24.00;93.60;;;;;;4998550;28;19913;-74
2024/04/06 11:34:47;;;;;;;;;;;24.00;94.10;;;;;;4996783;28;19993;-74
2024/04/06 11:37:13;;;;;;;;;;;24.10;93.70;;;;;;4994443;28;19984;-73
2024/04/06 11:39:38;;;;;;;;;;;24.20;94.10;;;;;;4996342;28;19917;-74
2024/04/06 11:42:04;;;;;;;;;;;24.20;94.20;;;;;;5000405;28;19921;-74
2024/04/06 11:44:31;;;;;;;;;;;24.20;93.60;;;;;;4995640;28;19944;-74
2024/04/06 11:46:56;;;;;;;;;;;24.20;92.80;;;;;;4985388;28;19914;-74
2024/04/06 11:49:22;;;;;;;;;;;24.20;93.70;;;;;;4988860;28;19917;-73
2024/04/06 11:51:48;;;;;;;;;;;24.40;93.90;;;;;;4997883;28;19910;-73
2024/04/06 11:54:13;;;;;;;;;;;24.50;93.70;;;;;;4991823;28;19914;-74
2024/04/06 11:56:39;;;;;;;;;;;24.60;93.70;;;;;;5001267;28;19909;-74
2024/04/06 11:59:04;;;;;;;;;;;24.70;92.80;;;;;;4995920;28;19921;-74
2024/04/06 12:01:30;;;;;;;;;;;24.80;92.80;;;;;;4995710;28;20339;-73
2024/04/06 12:03:55;;;;;;;;;;;24.90;92.90;;;;;;4989118;28;19926;-73
2024/04/06 12:06:23;;;;;;;;;;;25.00;92.50;;;;;;4993429;28;19936;-74
2024/04/06 12:08:49;;;;;;;;;;;25.10;92.40;;;;;;4994864;28;19910;-74
2024/04/06 12:11:15;;;;;;;;;;;25.30;92.00;;;;;;4991390;28;20438;-74
2024/04/06 12:13:41;;;;;;;;;;;25.40;91.80;;;;;;5000551;28;19998;-74
2024/04/06 12:16:12;;;;;;;;;;;25.40;91.70;;;;;;4996237;28;19916;-74
2024/04/06 12:18:38;;;;;;;;;;;25.50;91.20;;;;;;5001086;28;19914;-74
2024/04/06 12:21:04;;;;;;;;;;;25.50;91.50;;;;;;5005847;28;20289;-74
2024/04/06 12:23:29;;;;;;;;;;;25.50;91.70;;;;;;5001756;28;19918;-75
2024/04/06 12:25:55;;;;;;;;;;;25.50;91.00;;;;;;5009286;28;19910;-74
2024/04/06 12:28:20;;;;;;;;;;;25.60;90.90;;;;;;5004585;28;19917;-75
2024/04/06 12:30:46;;;;;;;;;;;25.70;90.40;;;;;;4999832;28;19914;-74
2024/04/06 12:33:11;;;;;;;;;;;25.70;90.60;;;;;;4990511;28;19914;-74
2024/04/06 12:35:39;;;;;;;;;;;25.70;90.30;;;;;;4996558;28;19917;-75
2024/04/06 12:38:04;;;;;;;;;;;25.80;91.00;;;;;;4999958;28;20043;-75
2024/04/06 12:40:29;;;;;;;;;;;25.80;90.40;;;;;;5004776;28;19945;-74
2024/04/06 12:42:56;;;;;;;;;;;25.90;90.20;;;;;;5001134;28;19913;-76
2024/04/06 12:45:22;;;;;;;;;;;26.10;89.70;;;;;;5007374;28;19910;-73
2024/04/06 12:47:47;;;;;;;;;;;26.30;90.00;;;;;;5005195;28;19916;-75
2024/04/06 12:50:13;;;;;;;;;;;26.50;90.00;;;;;;5008767;28;19953;-75
2024/04/06 12:52:38;;;;;;;;;;;26.50;90.10;;;;;;5002654;28;19961;-75
2024/04/06 12:55:04;;;;;;;;;;;26.60;89.20;;;;;;5008710;28;19913;-75
2024/04/06 12:57:43;;;;;;;;;;;26.80;89.50;;;;;;5003593;28;19964;-75
2024/04/06 13:00:09;;;;;;;;;;;27.00;89.20;;;;;;5008014;28;19914;-75
2024/04/06 13:02:35;;;;;;;;;;;27.00;88.90;;;;;;5000627;28;19958;-75
2024/04/06 13:05:01;;;;;;;;;;;27.00;89.00;;;;;;4996369;28;20027;-75
2024/04/06 13:07:27;;;;;;;;;;;27.00;90.00;;;;;;4993490;28;20368;-75
2024/04/06 13:09:59;;;;;;;;;;;27.00;87.80;;;;;;4994388;28;20373;-75
2024/04/06 13:12:30;;;;;;;;;;;27.10;85.60;;;;;;4991019;28;19959;-75
2024/04/06 13:14:57;;;;;;;;;;;27.10;85.60;;;;;;4992749;28;19913;-77
2024/04/06 13:17:24;;;;;;;;;;;27.10;85.30;;;;;;4991807;28;20380;-74
2024/04/06 13:19:50;;;;;;;;;;;27.20;85.30;;;;;;4991043;28;19917;-75
2024/04/06 13:22:15;;;;;;;;;;;27.20;85.70;;;;;;4992846;28;19913;-74
2024/04/06 13:24:41;;;;;;;;;;;27.30;85.10;;;;;;4990715;28;19928;-74
2024/04/06 13:27:08;;;;;;;;;;;27.50;85.50;;;;;;4991404;28;19910;-74
2024/04/06 13:29:33;;;;;;;;;;;27.60;85.60;;;;;;4991842;28;19953;-75
2024/04/06 13:31:59;;;;;;;;;;;27.60;84.60;;;;;;4993618;28;19910;-75
2024/04/06 13:34:24;;;;;;;;;;;27.70;82.30;;;;;;4992758;28;19914;-75
2024/04/06 13:36:50;;;;;;;;;;;27.60;81.20;;;;;;4995317;28;19917;-75
2024/04/06 13:39:16;;;;;;;;;;;27.40;83.00;;;;;;4994698;28;19945;-75
2024/04/06 13:41:41;;;;;;;;;;;27.20;84.00;;;;;;4994500;28;20004;-74
2024/04/06 13:44:07;;;;;;;;;;;27.00;84.70;;;;;;4995638;28;20012;-74
2024/04/06 13:46:33;;;;;;;;;;;27.00;84.60;;;;;;4993285;28;19910;-75
2024/04/06 13:48:58;;;;;;;;;;;26.90;84.60;;;;;;4996453;28;19914;-74
2024/04/06 13:51:24;;;;;;;;;;;26.60;85.40;;;;;;4992906;28;19910;-74
2024/04/06 13:53:51;;;;;;;;;;;26.60;86.00;;;;;;4994619;28;20368;-74
2024/04/06 13:56:16;;;;;;;;;;;26.70;85.70;;;;;;4993481;28;20559;-74
2024/04/06 13:58:44;;;;;;;;;;;26.70;84.10;;;;;;4996204;28;20404;-74
2024/04/06 14:01:11;;;;;;;;;;;26.60;85.30;;;;;;4993881;28;20381;-74
2024/04/06 14:03:36;;;;;;;;;;;26.70;83.40;;;;;;5003880;28;20477;-74
2024/04/06 14:06:04;;;;;;;;;;;26.50;84.20;;;;;;4991567;28;19918;-74
2024/04/06 14:08:33;;;;;;;;;;;26.50;84.70;;;;;;4991771;28;19921;-74